sensor_id;sensor_type;location;lat;lon;timestamp;temperature;humidity
68251;DHT22;55066;51.560;4.642;2023-07-28T00:01:59;17.52;99.99
68251;DHT22;55066;51.560;4.642;2023-07-28T00:04:24;17.55;99.99
68251;DHT22;55066;51.560;4.642;2023-07-28T00:06:50;17.53;99.99
68251;DHT22;55066;51.560;4.642;2023-07-28T00:09:15;17.70;99.99
68251;DHT22;55066;51.560;4.642;2023-07-28T00:11:41;17.59;99.99
68251;DHT22;55066;51.560;4.642;2023-07-28T00:14:06;17.53;99.99
68251;DHT22;55066;51.560;4.642;2023-07-28T00:16:31;17.52;99.99
68251;DHT22;55066;51.560;4.642;2023-07-28T00:18:57;17.53;99.99
68251;DHT22;55066;51.560;4.642;2023-07-28T00:21:22;17.46;99.99
68251;DHT22;55066;51.560;4.642;2023-07-28T00:23:48;17.59;99.12
68251;DHT22;55066;51.560;4.642;2023-07-28T00:26:13;17.57;99.99
68251;DHT22;55066;51.560;4.642;2023-07-28T00:28:39;17.59;99.99
68251;DHT22;55066;51.560;4.642;2023-07-28T00:31:04;17.55;99.99
68251;DHT22;55066;51.560;4.642;2023-07-28T00:33:30;17.57;99.99
68251;DHT22;55066;51.560;4.642;2023-07-28T00:35:56;17.57;99.99
68251;DHT22;55066;51.560;4.642;2023-07-28T00:38:21;17.43;99.99
68251;DHT22;55066;51.560;4.642;2023-07-28T00:40:46;17.32;99.26
68251;DHT22;55066;51.560;4.642;2023-07-28T00:43:12;17.62;99.99
68251;DHT22;55066;51.560;4.642;2023-07-28T00:45:38;17.55;99.99
68251;DHT22;55066;51.560;4.642;2023-07-28T00:48:10;17.49;99.99
68251;DHT22;55066;51.560;4.642;2023-07-28T00:50:36;17.59;99.99
68251;DHT22;55066;51.560;4.642;2023-07-28T00:53:02;17.63;99.99
68251;DHT22;55066;51.560;4.642;2023-07-28T00:55:28;17.55;99.99
68251;DHT22;55066;51.560;4.642;2023-07-28T00:57:53;17.61;99.99
68251;DHT22;55066;51.560;4.642;2023-07-28T01:00:19;17.66;99.99
68251;DHT22;55066;51.560;4.642;2023-07-28T01:02:44;17.57;99.99
68251;DHT22;55066;51.560;4.642;2023-07-28T01:05:10;17.50;99.99
68251;DHT22;55066;51.560;4.642;2023-07-28T01:10:27;17.57;99.99
68251;DHT22;55066;51.560;4.642;2023-07-28T01:12:53;17.59;99.99
68251;DHT22;55066;51.560;4.642;2023-07-28T01:15:19;17.59;99.99
68251;DHT22;55066;51.560;4.642;2023-07-28T01:17:44;17.48;99.99
68251;DHT22;55066;51.560;4.642;2023-07-28T01:20:10;17.49;99.99
68251;DHT22;55066;51.560;4.642;2023-07-28T01:25:36;17.65;99.99
68251;DHT22;55066;51.560;4.642;2023-07-28T01:28:04;17.42;99.99
68251;DHT22;55066;51.560;4.642;2023-07-28T01:30:30;17.73;99.99
68251;DHT22;55066;51.560;4.642;2023-07-28T01:32:56;17.45;99.99
68251;DHT22;55066;51.560;4.642;2023-07-28T01:35:23;17.45;99.99
68251;DHT22;55066;51.560;4.642;2023-07-28T01:37:49;17.57;99.99
68251;DHT22;55066;51.560;4.642;2023-07-28T01:40:19;17.50;99.99
68251;DHT22;55066;51.560;4.642;2023-07-28T01:42:45;17.61;99.99
68251;DHT22;55066;51.560;4.642;2023-07-28T01:45:11;17.53;99.99
68251;DHT22;55066;51.560;4.642;2023-07-28T01:47:36;17.48;99.99
68251;DHT22;55066;51.560;4.642;2023-07-28T01:50:02;17.56;99.99
68251;DHT22;55066;51.560;4.642;2023-07-28T01:52:27;17.52;99.99
68251;DHT22;55066;51.560;4.642;2023-07-28T01:54:53;17.48;99.99
68251;DHT22;55066;51.560;4.642;2023-07-28T01:57:18;17.67;99.99
68251;DHT22;55066;51.560;4.642;2023-07-28T01:59:44;17.69;99.99
68251;DHT22;55066;51.560;4.642;2023-07-28T02:02:09;17.63;99.99
68251;DHT22;55066;51.560;4.642;2023-07-28T02:04:35;17.45;99.99
68251;DHT22;55066;51.560;4.642;2023-07-28T02:07:00;17.66;99.99
68251;DHT22;55066;51.560;4.642;2023-07-28T02:09:26;17.75;99.99
68251;DHT22;55066;51.560;4.642;2023-07-28T02:11:52;17.36;99.99
68251;DHT22;55066;51.560;4.642;2023-07-28T02:14:18;17.48;99.99
68251;DHT22;55066;51.560;4.642;2023-07-28T02:16:43;17.67;99.99
68251;DHT22;55066;51.560;4.642;2023-07-28T02:19:09;17.46;99.99
68251;DHT22;55066;51.560;4.642;2023-07-28T02:21:34;17.65;99.99
68251;DHT22;55066;51.560;4.642;2023-07-28T02:24:00;17.70;99.99
68251;DHT22;55066;51.560;4.642;2023-07-28T02:26:25;17.57;99.99
68251;DHT22;55066;51.560;4.642;2023-07-28T02:28:51;17.73;99.99
68251;DHT22;55066;51.560;4.642;2023-07-28T02:31:16;17.65;99.99
68251;DHT22;55066;51.560;4.642;2023-07-28T02:33:42;17.46;99.99
68251;DHT22;55066;51.560;4.642;2023-07-28T02:36:07;17.73;99.99
68251;DHT22;55066;51.560;4.642;2023-07-28T02:38:33;17.73;99.99
68251;DHT22;55066;51.560;4.642;2023-07-28T02:40:58;17.61;99.99
68251;DHT22;55066;51.560;4.642;2023-07-28T02:43:24;17.50;99.99
68251;DHT22;55066;51.560;4.642;2023-07-28T02:45:54;17.65;99.99
68251;DHT22;55066;51.560;4.642;2023-07-28T02:48:20;17.65;99.99
68251;DHT22;55066;51.560;4.642;2023-07-28T02:50:47;17.57;99.99
68251;DHT22;55066;51.560;4.642;2023-07-28T02:53:13;17.65;99.99
68251;DHT22;55066;51.560;4.642;2023-07-28T02:55:43;17.69;99.99
68251;DHT22;55066;51.560;4.642;2023-07-28T02:58:12;17.66;99.99
68251;DHT22;55066;51.560;4.642;2023-07-28T03:00:41;17.46;99.99
68251;DHT22;55066;51.560;4.642;2023-07-28T03:03:08;17.61;99.99
68251;DHT22;55066;51.560;4.642;2023-07-28T03:05:39;17.67;99.99
68251;DHT22;55066;51.560;4.642;2023-07-28T03:08:21;17.56;99.99
68251;DHT22;55066;51.560;4.642;2023-07-28T03:10:46;17.50;99.99
68251;DHT22;55066;51.560;4.642;2023-07-28T03:13:12;17.53;99.99
68251;DHT22;55066;51.560;4.642;2023-07-28T03:15:37;17.61;99.99
68251;DHT22;55066;51.560;4.642;2023-07-28T03:18:04;17.72;99.99
68251;DHT22;55066;51.560;4.642;2023-07-28T03:20:30;17.66;99.99
68251;DHT22;55066;51.560;4.642;2023-07-28T03:22:56;17.56;99.99
68251;DHT22;55066;51.560;4.642;2023-07-28T03:25:21;17.55;99.99
68251;DHT22;55066;51.560;4.642;2023-07-28T03:27:47;17.76;99.99
68251;DHT22;55066;51.560;4.642;2023-07-28T03:30:13;17.59;99.99
68251;DHT22;55066;51.560;4.642;2023-07-28T03:32:39;17.70;99.99
68251;DHT22;55066;51.560;4.642;2023-07-28T03:35:04;17.72;99.99
68251;DHT22;55066;51.560;4.642;2023-07-28T03:37:32;17.56;99.99
68251;DHT22;55066;51.560;4.642;2023-07-28T03:39:58;17.65;99.99
68251;DHT22;55066;51.560;4.642;2023-07-28T03:42:32;17.59;99.99
68251;DHT22;55066;51.560;4.642;2023-07-28T03:44:58;17.50;99.99
68251;DHT22;55066;51.560;4.642;2023-07-28T03:47:23;17.49;99.99
68251;DHT22;55066;51.560;4.642;2023-07-28T03:49:49;17.65;99.99
68251;DHT22;55066;51.560;4.642;2023-07-28T03:52:14;17.56;99.99
68251;DHT22;55066;51.560;4.642;2023-07-28T03:54:40;17.63;99.99
68251;DHT22;55066;51.560;4.642;2023-07-28T03:57:06;17.50;99.99
68251;DHT22;55066;51.560;4.642;2023-07-28T03:59:31;17.70;99.99
68251;DHT22;55066;51.560;4.642;2023-07-28T04:01:57;17.61;99.99
68251;DHT22;55066;51.560;4.642;2023-07-28T04:04:22;17.63;99.99
68251;DHT22;55066;51.560;4.642;2023-07-28T04:06:49;17.56;99.99
68251;DHT22;55066;51.560;4.642;2023-07-28T04:09:19;17.72;99.99
68251;DHT22;55066;51.560;4.642;2023-07-28T04:11:45;17.52;99.99
68251;DHT22;55066;51.560;4.642;2023-07-28T04:14:10;17.72;99.99
68251;DHT22;55066;51.560;4.642;2023-07-28T04:16:36;17.57;99.99
68251;DHT22;55066;51.560;4.642;2023-07-28T04:19:01;17.80;99.99
68251;DHT22;55066;51.560;4.642;2023-07-28T04:21:27;17.62;99.99
68251;DHT22;55066;51.560;4.642;2023-07-28T04:23:53;17.62;99.99
68251;DHT22;55066;51.560;4.642;2023-07-28T04:26:18;17.57;99.99
68251;DHT22;55066;51.560;4.642;2023-07-28T04:28:48;17.67;99.99
68251;DHT22;55066;51.560;4.642;2023-07-28T04:31:13;17.84;99.99
68251;DHT22;55066;51.560;4.642;2023-07-28T04:33:53;17.79;99.99
68251;DHT22;55066;51.560;4.642;2023-07-28T04:36:20;17.82;99.99
68251;DHT22;55066;51.560;4.642;2023-07-28T04:38:45;17.61;99.99
68251;DHT22;55066;51.560;4.642;2023-07-28T04:41:10;17.89;99.99
68251;DHT22;55066;51.560;4.642;2023-07-28T04:43:51;17.83;99.99
68251;DHT22;55066;51.560;4.642;2023-07-28T04:46:17;17.90;99.99
68251;DHT22;55066;51.560;4.642;2023-07-28T04:48:48;17.75;99.99
68251;DHT22;55066;51.560;4.642;2023-07-28T04:51:48;17.84;99.99
68251;DHT22;55066;51.560;4.642;2023-07-28T04:54:23;17.72;99.99
68251;DHT22;55066;51.560;4.642;2023-07-28T04:56:48;17.83;99.99
68251;DHT22;55066;51.560;4.642;2023-07-28T04:59:18;17.83;99.99
68251;DHT22;55066;51.560;4.642;2023-07-28T05:01:44;17.87;99.99
68251;DHT22;55066;51.560;4.642;2023-07-28T05:04:10;17.75;99.99
68251;DHT22;55066;51.560;4.642;2023-07-28T05:06:35;17.91;99.99
68251;DHT22;55066;51.560;4.642;2023-07-28T05:09:01;17.82;99.99
68251;DHT22;55066;51.560;4.642;2023-07-28T05:11:34;17.96;99.99
68251;DHT22;55066;51.560;4.642;2023-07-28T05:13:59;17.94;98.28
68251;DHT22;55066;51.560;4.642;2023-07-28T05:16:25;18.05;99.99
68251;DHT22;55066;51.560;4.642;2023-07-28T05:19:05;18.08;99.99
68251;DHT22;55066;51.560;4.642;2023-07-28T05:21:57;18.24;99.99
68251;DHT22;55066;51.560;4.642;2023-07-28T05:24:32;18.38;99.99
68251;DHT22;55066;51.560;4.642;2023-07-28T05:26:57;18.41;99.99
68251;DHT22;55066;51.560;4.642;2023-07-28T05:29:22;18.51;99.99
68251;DHT22;55066;51.560;4.642;2023-07-28T05:31:48;18.60;99.99
68251;DHT22;55066;51.560;4.642;2023-07-28T05:34:22;18.56;99.99
68251;DHT22;55066;51.560;4.642;2023-07-28T05:36:47;18.69;99.99
68251;DHT22;55066;51.560;4.642;2023-07-28T05:39:12;18.69;99.99
68251;DHT22;55066;51.560;4.642;2023-07-28T05:41:41;18.62;99.99
68251;DHT22;55066;51.560;4.642;2023-07-28T05:44:09;18.58;99.99
68251;DHT22;55066;51.560;4.642;2023-07-28T05:46:35;18.55;99.99
68251;DHT22;55066;51.560;4.642;2023-07-28T05:49:00;18.41;99.99
68251;DHT22;55066;51.560;4.642;2023-07-28T05:51:26;18.52;99.99
68251;DHT22;55066;51.560;4.642;2023-07-28T05:53:51;18.45;99.99
68251;DHT22;55066;51.560;4.642;2023-07-28T05:56:18;18.55;99.99
68251;DHT22;55066;51.560;4.642;2023-07-28T05:58:48;18.59;99.99
68251;DHT22;55066;51.560;4.642;2023-07-28T06:01:14;18.52;99.99
68251;DHT22;55066;51.560;4.642;2023-07-28T06:03:59;18.53;99.99
68251;DHT22;55066;51.560;4.642;2023-07-28T06:06:26;18.49;99.99
68251;DHT22;55066;51.560;4.642;2023-07-28T06:08:52;18.60;99.99
68251;DHT22;55066;51.560;4.642;2023-07-28T06:11:18;18.55;99.99
68251;DHT22;55066;51.560;4.642;2023-07-28T06:13:44;18.55;99.99
68251;DHT22;55066;51.560;4.642;2023-07-28T06:16:11;18.59;99.99
68251;DHT22;55066;51.560;4.642;2023-07-28T06:18:37;18.55;99.99
68251;DHT22;55066;51.560;4.642;2023-07-28T06:21:08;18.51;99.99
68251;DHT22;55066;51.560;4.642;2023-07-28T06:23:33;18.68;99.99
68251;DHT22;55066;51.560;4.642;2023-07-28T06:25:59;18.66;99.99
68251;DHT22;55066;51.560;4.642;2023-07-28T06:28:25;18.63;99.99
68251;DHT22;55066;51.560;4.642;2023-07-28T06:30:57;18.58;99.99
68251;DHT22;55066;51.560;4.642;2023-07-28T06:33:25;18.58;99.99
68251;DHT22;55066;51.560;4.642;2023-07-28T06:35:51;18.58;99.99
68251;DHT22;55066;51.560;4.642;2023-07-28T06:38:17;18.56;99.99
68251;DHT22;55066;51.560;4.642;2023-07-28T06:40:43;18.72;99.99
68251;DHT22;55066;51.560;4.642;2023-07-28T06:43:09;18.65;99.99
68251;DHT22;55066;51.560;4.642;2023-07-28T06:45:35;18.77;99.99
68251;DHT22;55066;51.560;4.642;2023-07-28T06:48:01;18.76;99.99
68251;DHT22;55066;51.560;4.642;2023-07-28T06:50:26;18.77;99.99
68251;DHT22;55066;51.560;4.642;2023-07-28T06:52:52;18.80;99.99
68251;DHT22;55066;51.560;4.642;2023-07-28T06:55:21;18.85;99.99
68251;DHT22;55066;51.560;4.642;2023-07-28T06:57:47;18.86;99.99
68251;DHT22;55066;51.560;4.642;2023-07-28T07:00:13;18.83;99.99
68251;DHT22;55066;51.560;4.642;2023-07-28T07:02:40;18.80;99.99
68251;DHT22;55066;51.560;4.642;2023-07-28T07:05:06;18.82;99.99
68251;DHT22;55066;51.560;4.642;2023-07-28T07:07:32;18.82;99.99
68251;DHT22;55066;51.560;4.642;2023-07-28T07:09:58;18.90;99.99
68251;DHT22;55066;51.560;4.642;2023-07-28T07:12:23;18.99;99.99
68251;DHT22;55066;51.560;4.642;2023-07-28T07:14:49;19.03;99.99
68251;DHT22;55066;51.560;4.642;2023-07-28T07:17:14;18.93;99.99
68251;DHT22;55066;51.560;4.642;2023-07-28T07:19:40;18.93;99.99
68251;DHT22;55066;51.560;4.642;2023-07-28T07:22:05;18.97;99.99
68251;DHT22;55066;51.560;4.642;2023-07-28T07:24:32;19.02;99.99
68251;DHT22;55066;51.560;4.642;2023-07-28T07:26:57;19.20;99.99
68251;DHT22;55066;51.560;4.642;2023-07-28T07:29:23;19.36;99.99
68251;DHT22;55066;51.560;4.642;2023-07-28T07:31:48;19.57;99.99
68251;DHT22;55066;51.560;4.642;2023-07-28T07:34:14;19.65;99.99
68251;DHT22;55066;51.560;4.642;2023-07-28T07:36:39;19.71;99.99
68251;DHT22;55066;51.560;4.642;2023-07-28T07:39:05;19.69;99.99
68251;DHT22;55066;51.560;4.642;2023-07-28T07:41:31;19.68;99.99
68251;DHT22;55066;51.560;4.642;2023-07-28T07:43:56;19.71;99.99
68251;DHT22;55066;51.560;4.642;2023-07-28T07:46:22;19.80;99.99
68251;DHT22;55066;51.560;4.642;2023-07-28T07:48:48;19.89;99.99
68251;DHT22;55066;51.560;4.642;2023-07-28T07:51:14;19.78;99.99
68251;DHT22;55066;51.560;4.642;2023-07-28T07:53:40;19.89;99.99
68251;DHT22;55066;51.560;4.642;2023-07-28T07:56:07;19.89;99.99
68251;DHT22;55066;51.560;4.642;2023-07-28T07:58:33;20.05;99.99
68251;DHT22;55066;51.560;4.642;2023-07-28T08:00:59;20.17;99.99
68251;DHT22;55066;51.560;4.642;2023-07-28T08:03:25;20.20;99.99
68251;DHT22;55066;51.560;4.642;2023-07-28T08:05:51;20.56;99.99
68251;DHT22;55066;51.560;4.642;2023-07-28T08:08:17;20.69;99.99
68251;DHT22;55066;51.560;4.642;2023-07-28T08:10:45;20.59;99.99
68251;DHT22;55066;51.560;4.642;2023-07-28T08:13:10;20.58;99.99
68251;DHT22;55066;51.560;4.642;2023-07-28T08:15:36;20.52;99.99
68251;DHT22;55066;51.560;4.642;2023-07-28T08:18:01;20.52;99.99
68251;DHT22;55066;51.560;4.642;2023-07-28T08:20:27;20.47;99.99
68251;DHT22;55066;51.560;4.642;2023-07-28T08:22:52;20.73;98.44
68251;DHT22;55066;51.560;4.642;2023-07-28T08:25:18;21.04;99.99
68251;DHT22;55066;51.560;4.642;2023-07-28T08:27:44;20.89;99.18
68251;DHT22;55066;51.560;4.642;2023-07-28T08:30:09;21.02;98.03
68251;DHT22;55066;51.560;4.642;2023-07-28T08:32:35;21.29;99.99
68251;DHT22;55066;51.560;4.642;2023-07-28T08:35:01;21.37;99.99
68251;DHT22;55066;51.560;4.642;2023-07-28T08:37:28;21.26;96.34
68251;DHT22;55066;51.560;4.642;2023-07-28T08:39:53;21.37;99.99
68251;DHT22;55066;51.560;4.642;2023-07-28T08:42:20;21.36;99.99
68251;DHT22;55066;51.560;4.642;2023-07-28T08:44:46;21.53;99.99
68251;DHT22;55066;51.560;4.642;2023-07-28T08:47:12;21.43;99.99
68251;DHT22;55066;51.560;4.642;2023-07-28T08:49:38;21.33;99.40
68251;DHT22;55066;51.560;4.642;2023-07-28T08:52:04;21.37;99.99
68251;DHT22;55066;51.560;4.642;2023-07-28T08:54:30;21.82;98.30
68251;DHT22;55066;51.560;4.642;2023-07-28T08:56:57;22.20;98.15
68251;DHT22;55066;51.560;4.642;2023-07-28T08:59:28;22.35;95.76
68251;DHT22;55066;51.560;4.642;2023-07-28T09:01:56;22.12;98.82
68251;DHT22;55066;51.560;4.642;2023-07-28T09:04:23;21.77;99.58
68251;DHT22;55066;51.560;4.642;2023-07-28T09:06:50;21.59;99.99
68251;DHT22;55066;51.560;4.642;2023-07-28T09:09:18;21.69;98.10
68251;DHT22;55066;51.560;4.642;2023-07-28T09:11:48;21.65;98.86
68251;DHT22;55066;51.560;4.642;2023-07-28T09:14:16;22.05;99.77
68251;DHT22;55066;51.560;4.642;2023-07-28T09:16:42;22.30;99.18
68251;DHT22;55066;51.560;4.642;2023-07-28T09:19:08;22.32;98.22
68251;DHT22;55066;51.560;4.642;2023-07-28T09:21:35;22.74;95.68
68251;DHT22;55066;51.560;4.642;2023-07-28T09:24:03;22.65;97.58
68251;DHT22;55066;51.560;4.642;2023-07-28T09:26:43;23.26;95.57
68251;DHT22;55066;51.560;4.642;2023-07-28T09:31:38;23.59;94.64
68251;DHT22;55066;51.560;4.642;2023-07-28T09:34:07;23.82;95.11
68251;DHT22;55066;51.560;4.642;2023-07-28T09:36:34;23.97;94.74
68251;DHT22;55066;51.560;4.642;2023-07-28T09:39:02;24.05;94.77
68251;DHT22;55066;51.560;4.642;2023-07-28T09:41:29;23.97;94.85
68251;DHT22;55066;51.560;4.642;2023-07-28T09:43:55;24.56;92.04
68251;DHT22;55066;51.560;4.642;2023-07-28T09:46:22;24.40;90.90
68251;DHT22;55066;51.560;4.642;2023-07-28T09:48:52;24.14;91.87
68251;DHT22;55066;51.560;4.642;2023-07-28T09:51:21;24.04;92.57
68251;DHT22;55066;51.560;4.642;2023-07-28T09:54:09;24.15;93.89
68251;DHT22;55066;51.560;4.642;2023-07-28T09:56:36;24.69;91.69
68251;DHT22;55066;51.560;4.642;2023-07-28T09:59:07;25.10;91.27
68251;DHT22;55066;51.560;4.642;2023-07-28T10:01:35;24.76;91.40
68251;DHT22;55066;51.560;4.642;2023-07-28T10:04:01;24.76;91.39
68251;DHT22;55066;51.560;4.642;2023-07-28T10:06:26;24.66;91.97
68251;DHT22;55066;51.560;4.642;2023-07-28T10:08:53;24.90;91.05
68251;DHT22;55066;51.560;4.642;2023-07-28T10:11:18;24.48;91.16
68251;DHT22;55066;51.560;4.642;2023-07-28T10:13:45;24.72;91.31
68251;DHT22;55066;51.560;4.642;2023-07-28T10:16:12;24.92;89.59
68251;DHT22;55066;51.560;4.642;2023-07-28T10:18:40;25.18;90.84
68251;DHT22;55066;51.560;4.642;2023-07-28T10:21:16;25.84;89.12
68251;DHT22;55066;51.560;4.642;2023-07-28T10:23:43;25.94;88.98
68251;DHT22;55066;51.560;4.642;2023-07-28T10:26:09;25.34;89.73
68251;DHT22;55066;51.560;4.642;2023-07-28T10:28:37;25.32;88.80
68251;DHT22;55066;51.560;4.642;2023-07-28T10:31:08;25.29;90.80
68251;DHT22;55066;51.560;4.642;2023-07-28T10:33:45;26.04;88.60
68251;DHT22;55066;51.560;4.642;2023-07-28T10:41:35;25.77;88.24
68251;DHT22;55066;51.560;4.642;2023-07-28T10:44:00;26.03;87.36
68251;DHT22;55066;51.560;4.642;2023-07-28T10:46:26;25.83;87.62
68251;DHT22;55066;51.560;4.642;2023-07-28T10:48:52;25.67;87.82
68251;DHT22;55066;51.560;4.642;2023-07-28T10:51:26;26.18;87.97
68251;DHT22;55066;51.560;4.642;2023-07-28T10:53:57;26.41;86.82
68251;DHT22;55066;51.560;4.642;2023-07-28T10:56:23;26.41;86.95
68251;DHT22;55066;51.560;4.642;2023-07-28T10:59:03;26.48;85.06
68251;DHT22;55066;51.560;4.642;2023-07-28T11:01:37;26.30;85.80
68251;DHT22;55066;51.560;4.642;2023-07-28T11:04:17;26.08;86.05
68251;DHT22;55066;51.560;4.642;2023-07-28T11:06:50;26.27;85.19
68251;DHT22;55066;51.560;4.642;2023-07-28T11:09:18;26.53;86.02
68251;DHT22;55066;51.560;4.642;2023-07-28T11:11:43;25.94;86.50
68251;DHT22;55066;51.560;4.642;2023-07-28T11:14:09;26.39;86.77
68251;DHT22;55066;51.560;4.642;2023-07-28T11:16:36;26.68;85.97
68251;DHT22;55066;51.560;4.642;2023-07-28T11:19:03;27.30;85.67
68251;DHT22;55066;51.560;4.642;2023-07-28T11:21:36;27.26;84.03
68251;DHT22;55066;51.560;4.642;2023-07-28T11:24:03;27.14;83.68
68251;DHT22;55066;51.560;4.642;2023-07-28T11:26:28;26.59;83.83
68251;DHT22;55066;51.560;4.642;2023-07-28T11:28:54;26.44;86.08
68251;DHT22;55066;51.560;4.642;2023-07-28T11:31:23;26.22;85.33
68251;DHT22;55066;51.560;4.642;2023-07-28T11:33:48;25.94;85.79
68251;DHT22;55066;51.560;4.642;2023-07-28T11:36:22;25.96;86.78
68251;DHT22;55066;51.560;4.642;2023-07-28T11:38:48;25.73;84.40
68251;DHT22;55066;51.560;4.642;2023-07-28T11:41:14;25.79;84.73
68251;DHT22;55066;51.560;4.642;2023-07-28T11:43:40;25.97;84.44
68251;DHT22;55066;51.560;4.642;2023-07-28T11:46:33;26.44;83.56
68251;DHT22;55066;51.560;4.642;2023-07-28T11:51:43;26.17;84.00
68251;DHT22;55066;51.560;4.642;2023-07-28T11:54:17;26.05;87.76
68251;DHT22;55066;51.560;4.642;2023-07-28T11:56:48;25.46;87.12
68251;DHT22;55066;51.560;4.642;2023-07-28T11:59:16;25.19;86.31
68251;DHT22;55066;51.560;4.642;2023-07-28T12:02:01;24.86;88.52
68251;DHT22;55066;51.560;4.642;2023-07-28T12:04:40;25.04;90.12
68251;DHT22;55066;51.560;4.642;2023-07-28T12:07:15;25.17;88.75
68251;DHT22;55066;51.560;4.642;2023-07-28T12:12:22;24.86;86.92
68251;DHT22;55066;51.560;4.642;2023-07-28T12:14:48;24.88;88.28
68251;DHT22;55066;51.560;4.642;2023-07-28T12:17:21;25.19;89.32
68251;DHT22;55066;51.560;4.642;2023-07-28T12:20:06;24.81;88.38
68251;DHT22;55066;51.560;4.642;2023-07-28T12:22:43;25.07;87.81
68251;DHT22;55066;51.560;4.642;2023-07-28T12:25:10;25.28;87.74
68251;DHT22;55066;51.560;4.642;2023-07-28T12:27:36;25.10;87.48
68251;DHT22;55066;51.560;4.642;2023-07-28T12:30:02;24.84;87.55
68251;DHT22;55066;51.560;4.642;2023-07-28T12:32:28;24.83;87.03
68251;DHT22;55066;51.560;4.642;2023-07-28T12:34:54;24.69;87.83
68251;DHT22;55066;51.560;4.642;2023-07-28T12:37:19;24.76;87.55
68251;DHT22;55066;51.560;4.642;2023-07-28T12:39:45;25.19;87.03
68251;DHT22;55066;51.560;4.642;2023-07-28T12:42:11;25.15;87.60
68251;DHT22;55066;51.560;4.642;2023-07-28T12:44:38;24.84;87.39
68251;DHT22;55066;51.560;4.642;2023-07-28T12:47:04;24.62;87.84
68251;DHT22;55066;51.560;4.642;2023-07-28T12:49:30;24.90;88.36
68251;DHT22;55066;51.560;4.642;2023-07-28T12:51:59;24.91;88.10
68251;DHT22;55066;51.560;4.642;2023-07-28T12:54:25;25.36;87.68
68251;DHT22;55066;51.560;4.642;2023-07-28T12:56:51;25.46;86.05
68251;DHT22;55066;51.560;4.642;2023-07-28T12:59:17;25.59;86.56
68251;DHT22;55066;51.560;4.642;2023-07-28T13:01:43;25.59;86.27
68251;DHT22;55066;51.560;4.642;2023-07-28T13:04:08;25.43;85.25
68251;DHT22;55066;51.560;4.642;2023-07-28T13:06:34;25.27;86.86
68251;DHT22;55066;51.560;4.642;2023-07-28T13:08:59;25.82;85.75
68251;DHT22;55066;51.560;4.642;2023-07-28T13:11:25;26.49;84.21
68251;DHT22;55066;51.560;4.642;2023-07-28T13:13:50;26.11;84.50
68251;DHT22;55066;51.560;4.642;2023-07-28T13:16:16;25.59;85.01
68251;DHT22;55066;51.560;4.642;2023-07-28T13:18:45;25.34;86.27
68251;DHT22;55066;51.560;4.642;2023-07-28T13:21:10;25.59;85.39
68251;DHT22;55066;51.560;4.642;2023-07-28T13:23:36;25.84;85.14
68251;DHT22;55066;51.560;4.642;2023-07-28T13:26:02;26.07;84.20
68251;DHT22;55066;51.560;4.642;2023-07-28T13:28:31;25.67;84.02
68251;DHT22;55066;51.560;4.642;2023-07-28T13:30:56;25.72;85.25
68251;DHT22;55066;51.560;4.642;2023-07-28T13:33:21;24.92;85.27
68251;DHT22;55066;51.560;4.642;2023-07-28T13:35:47;24.70;87.03
68251;DHT22;55066;51.560;4.642;2023-07-28T13:38:13;24.33;87.48
68251;DHT22;55066;51.560;4.642;2023-07-28T13:40:38;24.72;87.50
68251;DHT22;55066;51.560;4.642;2023-07-28T13:43:04;24.79;87.04
68251;DHT22;55066;51.560;4.642;2023-07-28T13:45:29;24.62;87.65
68251;DHT22;55066;51.560;4.642;2023-07-28T13:47:55;24.42;87.39
68251;DHT22;55066;51.560;4.642;2023-07-28T13:50:20;24.29;88.15
68251;DHT22;55066;51.560;4.642;2023-07-28T13:52:46;23.93;87.87
68251;DHT22;55066;51.560;4.642;2023-07-28T13:55:12;23.85;89.15
68251;DHT22;55066;51.560;4.642;2023-07-28T13:57:38;23.56;89.99
68251;DHT22;55066;51.560;4.642;2023-07-28T14:00:04;23.66;90.11
68251;DHT22;55066;51.560;4.642;2023-07-28T14:02:37;24.04;89.09
68251;DHT22;55066;51.560;4.642;2023-07-28T14:05:03;23.90;88.77
68251;DHT22;55066;51.560;4.642;2023-07-28T14:07:29;23.73;89.72
68251;DHT22;55066;51.560;4.642;2023-07-28T14:09:54;23.77;89.88
68251;DHT22;55066;51.560;4.642;2023-07-28T14:12:20;23.63;90.78
68251;DHT22;55066;51.560;4.642;2023-07-28T14:14:45;23.61;90.34
68251;DHT22;55066;51.560;4.642;2023-07-28T14:17:11;23.73;89.14
68251;DHT22;55066;51.560;4.642;2023-07-28T14:19:38;23.39;89.74
68251;DHT22;55066;51.560;4.642;2023-07-28T14:22:04;23.47;89.66
68251;DHT22;55066;51.560;4.642;2023-07-28T14:24:30;23.71;89.30
68251;DHT22;55066;51.560;4.642;2023-07-28T14:26:55;24.29;87.31
68251;DHT22;55066;51.560;4.642;2023-07-28T14:29:20;24.69;86.00
68251;DHT22;55066;51.560;4.642;2023-07-28T14:31:46;25.14;84.48
68251;DHT22;55066;51.560;4.642;2023-07-28T14:34:11;24.86;84.82
68251;DHT22;55066;51.560;4.642;2023-07-28T14:36:38;25.06;85.30
68251;DHT22;55066;51.560;4.642;2023-07-28T14:39:03;25.59;83.51
68251;DHT22;55066;51.560;4.642;2023-07-28T14:41:29;25.62;83.52
68251;DHT22;55066;51.560;4.642;2023-07-28T14:43:54;25.83;83.31
68251;DHT22;55066;51.560;4.642;2023-07-28T14:46:20;25.52;84.50
68251;DHT22;55066;51.560;4.642;2023-07-28T14:48:48;25.77;83.51
68251;DHT22;55066;51.560;4.642;2023-07-28T14:51:15;25.35;83.64
68251;DHT22;55066;51.560;4.642;2023-07-28T14:53:41;24.92;85.08
68251;DHT22;55066;51.560;4.642;2023-07-28T14:56:07;25.70;83.47
68251;DHT22;55066;51.560;4.642;2023-07-28T14:58:33;25.82;84.12
68251;DHT22;55066;51.560;4.642;2023-07-28T15:00:59;26.35;82.29
68251;DHT22;55066;51.560;4.642;2023-07-28T15:03:26;26.68;81.51
68251;DHT22;55066;51.560;4.642;2023-07-28T15:05:53;26.93;81.19
68251;DHT22;55066;51.560;4.642;2023-07-28T15:08:19;26.51;81.58
68251;DHT22;55066;51.560;4.642;2023-07-28T15:10:44;26.76;81.45
68251;DHT22;55066;51.560;4.642;2023-07-28T15:13:09;26.89;81.15
68251;DHT22;55066;51.560;4.642;2023-07-28T15:15:35;27.35;79.85
68251;DHT22;55066;51.560;4.642;2023-07-28T15:18:01;27.20;80.01
68251;DHT22;55066;51.560;4.642;2023-07-28T15:20:26;27.79;79.25
68251;DHT22;55066;51.560;4.642;2023-07-28T15:22:51;27.42;80.07
68251;DHT22;55066;51.560;4.642;2023-07-28T15:25:17;26.78;82.10
68251;DHT22;55066;51.560;4.642;2023-07-28T15:27:43;26.35;81.84
68251;DHT22;55066;51.560;4.642;2023-07-28T15:30:09;26.66;82.06
68251;DHT22;55066;51.560;4.642;2023-07-28T15:32:36;26.90;82.05
68251;DHT22;55066;51.560;4.642;2023-07-28T15:35:02;26.76;81.64
68251;DHT22;55066;51.560;4.642;2023-07-28T15:37:30;26.45;82.35
68251;DHT22;55066;51.560;4.642;2023-07-28T15:39:57;26.51;82.69
68251;DHT22;55066;51.560;4.642;2023-07-28T15:42:23;26.83;82.15
68251;DHT22;55066;51.560;4.642;2023-07-28T15:44:50;27.59;79.48
68251;DHT22;55066;51.560;4.642;2023-07-28T15:47:16;27.69;80.31
68251;DHT22;55066;51.560;4.642;2023-07-28T15:49:42;29.85;74.63